createdAt,value
2023-04-18T00:00:55.374Z,9.61
2023-04-18T00:03:22.397Z,9.63
2023-04-18T00:05:49.348Z,9.55
2023-04-18T00:08:17.629Z,9.43
2023-04-18T00:10:44.605Z,9.51
2023-04-18T00:13:11.454Z,9.54
2023-04-18T00:15:38.472Z,9.50
2023-04-18T00:18:06.151Z,9.59
2023-04-18T00:20:33.192Z,9.53
2023-04-18T00:23:00.195Z,9.62
2023-04-18T00:25:28.628Z,9.49
2023-04-18T00:27:55.390Z,9.44
2023-04-18T00:30:23.971Z,9.41
2023-04-18T00:32:57.804Z,9.42
2023-04-18T00:35:24.905Z,9.40
2023-04-18T00:37:51.780Z,9.39
2023-04-18T00:40:18.806Z,9.12
2023-04-18T00:42:47.031Z,9.01
2023-04-18T00:45:14.390Z,8.88
2023-04-18T00:47:41.361Z,8.66
2023-04-18T00:50:11.571Z,8.67
2023-04-18T00:52:38.894Z,8.80
2023-04-18T00:55:08.620Z,8.90
2023-04-18T00:58:03.046Z,9.02
2023-04-18T01:00:31.651Z,9.09
2023-04-18T01:02:59.826Z,9.14
2023-04-18T01:06:09.755Z,9.23
2023-04-18T01:08:37.170Z,9.30
2023-04-18T01:11:08.027Z,9.33
2023-04-18T01:13:36.248Z,9.38
2023-04-18T01:16:04.402Z,9.34
2023-04-18T01:18:31.356Z,9.46
2023-04-18T01:20:59.046Z,9.46
2023-04-18T01:23:26.649Z,9.45
2023-04-18T01:25:54.808Z,9.46
2023-04-18T01:28:21.927Z,9.41
2023-04-18T01:30:48.831Z,9.52
2023-04-18T01:33:15.636Z,9.46
2023-04-18T01:35:42.707Z,9.50
2023-04-18T01:38:09.684Z,9.58
2023-04-18T01:40:36.655Z,9.55
2023-04-18T01:43:04.976Z,9.47
2023-04-18T01:45:31.905Z,9.48
2023-04-18T01:47:58.800Z,9.36
2023-04-18T01:50:25.662Z,9.31
2023-04-18T01:52:54.199Z,9.26
2023-04-18T01:55:21.274Z,9.20
2023-04-18T01:57:48.182Z,9.14
2023-04-18T02:00:17.561Z,9.07
2023-04-18T02:02:44.532Z,9.05
2023-04-18T02:05:11.906Z,8.97
2023-04-18T02:07:40.023Z,8.78
2023-04-18T02:10:08.906Z,8.80
2023-04-18T02:12:35.882Z,8.80
2023-04-18T02:15:12.171Z,8.88
2023-04-18T02:17:45.202Z,8.86
2023-04-18T02:20:17.453Z,8.91
2023-04-18T02:22:44.596Z,9.06
2023-04-18T02:25:11.507Z,9.12
2023-04-18T02:27:39.396Z,9.27
2023-04-18T02:30:08.733Z,9.02
2023-04-18T02:32:35.652Z,8.90
2023-04-18T02:35:04.981Z,8.81
2023-04-18T02:37:31.849Z,8.73
2023-04-18T02:39:58.738Z,8.72
2023-04-18T02:42:29.526Z,8.74
2023-04-18T02:44:57.008Z,8.66
2023-04-18T02:47:24.347Z,8.62
2023-04-18T02:49:51.210Z,8.72
2023-04-18T02:52:19.993Z,8.67
2023-04-18T02:54:47.020Z,8.86
2023-04-18T02:57:18.063Z,8.94
2023-04-18T02:59:59.245Z,8.70
2023-04-18T03:02:50.084Z,8.51
2023-04-18T03:05:34.677Z,8.44
2023-04-18T03:08:05.855Z,8.48
2023-04-18T03:10:33.084Z,8.37
2023-04-18T03:13:00.099Z,8.31
2023-04-18T03:15:28.414Z,8.43
2023-04-18T03:17:56.124Z,8.66
2023-04-18T03:20:24.117Z,8.56
2023-04-18T03:22:52.246Z,8.58
2023-04-18T03:25:25.341Z,8.56
2023-04-18T03:27:53.794Z,8.58
2023-04-18T03:30:26.545Z,8.40
2023-04-18T03:32:58.326Z,8.26
2023-04-18T03:35:25.555Z,8.16
2023-04-18T03:37:52.540Z,8.21
2023-04-18T03:40:26.341Z,8.25
2023-04-18T03:42:57.540Z,8.35
2023-04-18T03:45:25.894Z,8.44
2023-04-18T03:47:52.950Z,8.43
2023-04-18T03:50:22.028Z,8.44
2023-04-18T03:52:58.849Z,8.42
2023-04-18T03:55:27.700Z,8.59
2023-04-18T03:57:55.121Z,8.52
2023-04-18T04:00:27.306Z,8.34
2023-04-18T04:03:02.506Z,8.17
2023-04-18T04:05:30.628Z,8.02
2023-04-18T04:07:57.762Z,8.17
2023-04-18T04:10:26.737Z,8.17
2023-04-18T04:12:53.988Z,8.14
2023-04-18T04:15:21.271Z,8.16
2023-04-18T04:17:54.802Z,8.06
2023-04-18T04:20:22.034Z,7.93
2023-04-18T04:23:00.506Z,7.87
2023-04-18T04:25:33.821Z,7.89
2023-04-18T04:28:06.519Z,7.77
2023-04-18T04:30:38.778Z,7.86
2023-04-18T04:33:06.396Z,7.99
2023-04-18T04:35:33.365Z,8.10
2023-04-18T04:38:00.433Z,8.03
2023-04-18T04:40:34.849Z,8.05
2023-04-18T04:43:09.589Z,8.14
2023-04-18T04:45:37.668Z,8.10
2023-04-18T04:48:05.740Z,8.29
2023-04-18T04:50:34.233Z,8.36
2023-04-18T04:53:01.201Z,8.40
2023-04-18T04:55:28.212Z,8.32
2023-04-18T04:57:57.060Z,8.31
2023-04-18T05:00:44.006Z,8.46
2023-04-18T05:03:11.773Z,8.43
2023-04-18T05:05:38.901Z,8.49
2023-04-18T05:08:06.360Z,8.63
2023-04-18T05:10:34.311Z,8.69
2023-04-18T05:13:02.845Z,8.69
2023-04-18T05:15:29.903Z,8.69
2023-04-18T05:17:57.342Z,8.70
2023-04-18T05:20:24.751Z,8.74
2023-04-18T05:22:52.354Z,8.66
2023-04-18T05:25:19.514Z,8.71
2023-04-18T05:27:48.121Z,8.71
2023-04-18T05:30:19.049Z,8.77
2023-04-18T05:32:52.825Z,8.90
2023-04-18T05:35:22.846Z,8.75
2023-04-18T05:37:49.924Z,8.83
2023-04-18T05:40:17.035Z,8.95
2023-04-18T05:42:47.227Z,9.09
2023-04-18T05:45:14.957Z,9.29
2023-04-18T05:47:43.195Z,9.30
2023-04-18T05:50:10.790Z,9.43
2023-04-18T05:52:38.281Z,9.45
2023-04-18T05:55:06.384Z,9.56
2023-04-18T05:57:34.238Z,9.46
2023-04-18T06:00:01.056Z,9.45
2023-04-18T06:02:28.159Z,9.54
2023-04-18T06:04:56.630Z,9.42
2023-04-18T06:07:24.170Z,9.54
2023-04-18T06:09:51.965Z,9.53
2023-04-18T06:12:18.824Z,9.23
2023-04-18T06:14:46.265Z,8.98
2023-04-18T06:17:13.254Z,8.94
2023-04-18T06:19:40.106Z,8.86
2023-04-18T06:22:08.332Z,8.85
2023-04-18T06:24:36.181Z,8.86
2023-04-18T06:27:04.855Z,8.90
2023-04-18T06:29:31.836Z,8.86
2023-04-18T06:31:59.393Z,8.96
2023-04-18T06:34:27.083Z,9.10
2023-04-18T06:36:55.330Z,9.24
2023-04-18T06:39:23.513Z,9.38
2023-04-18T06:41:51.724Z,9.30
2023-04-18T06:44:27.751Z,9.36
2023-04-18T06:46:55.633Z,9.52
2023-04-18T06:49:26.495Z,9.60
2023-04-18T06:51:54.158Z,9.64
2023-04-18T06:54:21.071Z,9.28
2023-04-18T06:56:49.364Z,8.98
2023-04-18T06:59:16.342Z,9.01
2023-04-18T07:01:43.164Z,9.09
2023-04-18T07:04:30.419Z,9.30
2023-04-18T07:06:59.558Z,9.47
2023-04-18T07:09:29.690Z,9.55
2023-04-18T07:11:58.358Z,9.66
2023-04-18T07:14:27.620Z,9.54
2023-04-18T07:16:56.921Z,9.68
2023-04-18T07:19:26.209Z,9.83
2023-04-18T07:22:01.499Z,9.97
2023-04-18T07:24:29.093Z,9.96
2023-04-18T07:27:04.935Z,10.27
2023-04-18T07:29:32.062Z,11.06
2023-04-18T07:32:02.923Z,11.53
2023-04-18T07:34:30.820Z,11.00
2023-04-18T07:37:00.399Z,11.30
2023-04-18T07:39:27.669Z,9.84
2023-04-18T07:41:54.818Z,9.00
2023-04-18T07:44:23.139Z,9.04
2023-04-18T07:47:44.579Z,9.18
2023-04-18T07:50:11.875Z,9.26
2023-04-18T07:52:39.583Z,9.49
2023-04-18T07:55:08.213Z,9.62
2023-04-18T07:57:35.290Z,9.53
2023-04-18T08:00:04.672Z,9.66
2023-04-18T08:07:13.542Z,10.01
2023-04-18T08:09:40.813Z,9.86
2023-04-18T08:12:08.452Z,10.34
2023-04-18T08:14:35.783Z,10.69
2023-04-18T08:21:10.668Z,10.15
2023-04-18T08:23:38.141Z,10.08
2023-04-18T08:26:05.450Z,10.27
2023-04-18T08:28:32.833Z,10.40
2023-04-18T08:31:24.065Z,10.95
2023-04-18T08:33:53.510Z,11.31
2023-04-18T08:36:22.941Z,11.93
2023-04-18T08:38:50.468Z,12.42
2023-04-18T08:41:22.543Z,12.37
2023-04-18T08:43:49.734Z,12.62
2023-04-18T08:46:16.909Z,12.63
2023-04-18T08:48:44.311Z,11.97
2023-04-18T08:51:11.420Z,11.26
2023-04-18T08:54:08.274Z,11.36
2023-04-18T08:56:35.484Z,11.46
2023-04-18T08:59:02.444Z,11.87
2023-04-18T09:01:55.729Z,12.61
2023-04-18T09:04:37.761Z,12.22
2023-04-18T09:07:07.724Z,11.51
2023-04-18T09:09:48.180Z,10.86
2023-04-18T09:12:17.671Z,10.86
2023-04-18T09:14:46.358Z,10.93
2023-04-18T09:17:46.753Z,11.27
2023-04-18T09:20:26.322Z,11.12
2023-04-18T09:22:56.653Z,11.12
2023-04-18T09:25:39.836Z,11.08
2023-04-18T09:28:23.548Z,11.32
2023-04-18T09:30:52.287Z,11.27
2023-04-18T09:33:26.929Z,11.57
2023-04-18T09:35:53.975Z,11.62
2023-04-18T09:38:38.733Z,11.66
2023-04-18T09:41:11.338Z,12.17
2023-04-18T09:43:38.915Z,12.10
2023-04-18T09:46:07.660Z,12.23
2023-04-18T09:48:35.001Z,12.88
2023-04-18T09:51:07.660Z,13.25
2023-04-18T09:53:40.711Z,13.48
2023-04-18T09:56:19.585Z,13.31
2023-04-18T09:58:55.602Z,13.31
2023-04-18T10:01:26.636Z,13.56
2023-04-18T10:03:57.087Z,13.70
2023-04-18T10:06:28.392Z,13.65
2023-04-18T10:08:56.802Z,13.77
2023-04-18T10:11:25.594Z,13.30
2023-04-18T10:14:45.103Z,13.32
2023-04-18T10:17:16.697Z,13.02
2023-04-18T10:19:43.817Z,13.16
2023-04-18T10:22:11.881Z,13.32
2023-04-18T10:24:50.743Z,13.44
2023-04-18T10:27:39.653Z,13.55
2023-04-18T10:30:09.345Z,13.15
2023-04-18T10:32:36.522Z,13.21
2023-04-18T10:35:06.087Z,13.17
2023-04-18T10:37:33.679Z,13.47
2023-04-18T10:40:02.065Z,13.54
2023-04-18T10:43:03.725Z,13.17
2023-04-18T10:45:31.004Z,12.97
2023-04-18T10:48:22.808Z,12.97
2023-04-18T10:51:15.885Z,12.85
2023-04-18T10:53:52.133Z,12.98
2023-04-18T10:56:19.603Z,12.76
2023-04-18T10:59:22.816Z,12.70
2023-04-18T11:01:57.294Z,12.61
2023-04-18T11:04:25.198Z,12.93
2023-04-18T11:06:54.180Z,13.35
2023-04-18T11:09:21.189Z,13.57
2023-04-18T11:12:03.955Z,13.67
2023-04-18T11:14:41.102Z,13.12
2023-04-18T11:17:19.169Z,12.87
2023-04-18T11:19:46.967Z,12.92
2023-04-18T11:22:15.517Z,12.96
2023-04-18T11:25:59.180Z,12.87
2023-04-18T11:28:27.838Z,12.74
2023-04-18T11:31:00.786Z,12.79
2023-04-18T11:33:29.229Z,12.83
2023-04-18T11:35:58.053Z,12.83
2023-04-18T11:38:29.030Z,12.97
2023-04-18T11:40:56.456Z,12.83
2023-04-18T11:43:25.202Z,12.84
2023-04-18T11:45:54.188Z,13.21
2023-04-18T11:48:22.501Z,13.21
2023-04-18T11:50:49.997Z,13.18
2023-04-18T11:53:32.447Z,13.56
2023-04-18T11:55:59.603Z,13.58
2023-04-18T11:58:32.616Z,13.89
2023-04-18T12:01:00.762Z,14.14
2023-04-18T12:03:29.321Z,14.65
2023-04-18T12:09:30.205Z,14.57
2023-04-18T12:11:57.917Z,14.40
2023-04-18T12:14:24.958Z,13.76
2023-04-18T12:16:52.492Z,13.82
2023-04-18T12:19:25.189Z,14.04
2023-04-18T12:21:57.197Z,14.19
2023-04-18T12:24:27.217Z,14.07
2023-04-18T12:26:54.404Z,14.09
2023-04-18T12:29:21.720Z,13.99
2023-04-18T12:31:48.696Z,13.86
2023-04-18T12:34:15.845Z,13.84
2023-04-18T12:36:45.314Z,13.95
2023-04-18T12:39:12.277Z,14.08
2023-04-18T12:41:39.138Z,14.10
2023-04-18T12:44:07.600Z,14.23
2023-04-18T12:46:34.924Z,14.41
2023-04-18T12:49:01.817Z,14.49
2023-04-18T12:51:29.429Z,14.38
2023-04-18T12:53:57.740Z,14.59
2023-04-18T12:56:24.969Z,14.53
2023-04-18T12:58:52.263Z,14.08
2023-04-18T13:01:19.202Z,14.11
2023-04-18T13:03:56.279Z,14.10
2023-04-18T13:06:31.259Z,13.99
2023-04-18T13:09:00.345Z,13.86
2023-04-18T13:11:27.325Z,14.01
2023-04-18T13:13:54.668Z,14.15
2023-04-18T13:16:21.949Z,14.12
2023-04-18T13:18:48.980Z,14.23
2023-04-18T13:21:16.122Z,14.22
2023-04-18T13:23:42.950Z,14.39
2023-04-18T13:26:11.573Z,14.35
2023-04-18T13:28:38.436Z,14.22
2023-04-18T13:31:06.229Z,14.64
2023-04-18T13:33:33.344Z,14.54
2023-04-18T13:36:01.394Z,14.41
2023-04-18T13:38:28.311Z,14.53
2023-04-18T13:41:08.586Z,14.51
2023-04-18T13:43:40.957Z,14.34
2023-04-18T13:46:11.568Z,14.22
2023-04-18T13:49:57.055Z,14.19
2023-04-18T13:52:25.563Z,14.00
2023-04-18T13:54:53.144Z,14.13
2023-04-18T13:57:20.422Z,14.27
2023-04-18T13:59:48.749Z,14.31
2023-04-18T14:02:15.996Z,14.34
2023-04-18T14:04:43.122Z,14.47
2023-04-18T14:07:10.766Z,14.11
2023-04-18T14:09:37.738Z,14.12
2023-04-18T14:12:05.451Z,14.24
2023-04-18T14:14:32.421Z,14.23
2023-04-18T14:17:00.641Z,14.32
2023-04-18T14:19:27.524Z,14.40
2023-04-18T14:21:54.547Z,14.25
2023-04-18T14:24:21.572Z,14.04
2023-04-18T14:26:50.118Z,14.09
2023-04-18T14:29:17.213Z,14.23
2023-04-18T14:33:00.307Z,14.33
2023-04-18T14:35:29.171Z,14.49
2023-04-18T14:37:57.116Z,14.30
2023-04-18T14:40:24.376Z,14.34
2023-04-18T14:42:51.342Z,14.59
2023-04-18T14:45:19.209Z,14.46
2023-04-18T14:47:46.152Z,14.25
2023-04-18T14:50:13.301Z,14.29
2023-04-18T14:52:42.514Z,14.36
2023-04-18T14:55:10.790Z,14.28
2023-04-18T14:57:39.113Z,14.32
2023-04-18T15:00:20.696Z,14.43
2023-04-18T15:02:51.223Z,14.44
2023-04-18T15:05:22.429Z,14.51
2023-04-18T15:07:52.311Z,14.57
2023-04-18T15:10:19.887Z,14.52
2023-04-18T15:14:05.089Z,14.61
2023-04-18T15:16:32.808Z,14.67
2023-04-18T15:19:00.563Z,14.52
2023-04-18T15:21:27.435Z,14.52
2023-04-18T15:23:56.038Z,14.54
2023-04-18T15:26:23.257Z,14.59
2023-04-18T15:28:51.606Z,14.59
2023-04-18T15:31:18.475Z,14.47
2023-04-18T15:33:45.455Z,14.49
2023-04-18T15:36:37.210Z,14.42
2023-04-18T15:39:05.850Z,14.33
2023-04-18T15:41:35.941Z,14.34
2023-04-18T15:44:03.899Z,14.33
2023-04-18T15:46:31.178Z,14.33
2023-04-18T15:48:58.430Z,14.43
2023-04-18T15:51:26.817Z,14.36
2023-04-18T15:53:53.697Z,14.38
2023-04-18T15:56:22.322Z,14.42
2023-04-18T15:58:49.373Z,14.44
2023-04-18T16:01:16.524Z,14.46
2023-04-18T16:03:43.788Z,14.45
2023-04-18T16:06:11.256Z,14.50
2023-04-18T16:09:29.870Z,14.57
2023-04-18T16:11:58.441Z,14.58
2023-04-18T16:14:25.423Z,14.71
2023-04-18T16:16:52.334Z,14.79
2023-04-18T16:19:21.686Z,14.64
2023-04-18T16:21:48.836Z,14.61
2023-04-18T16:24:16.482Z,14.66
2023-04-18T16:26:43.616Z,14.76
2023-04-18T16:29:14.497Z,14.79
2023-04-18T16:31:42.276Z,14.90
2023-04-18T16:34:09.839Z,14.85
2023-04-18T16:36:36.901Z,14.63
2023-04-18T16:39:03.957Z,14.54
2023-04-18T16:41:31.031Z,14.51
2023-04-18T16:43:57.952Z,14.42
2023-04-18T16:46:26.288Z,14.44
2023-04-18T16:48:53.123Z,14.33
2023-04-18T16:51:20.063Z,14.33
2023-04-18T16:53:47.030Z,14.30
2023-04-18T16:57:30.589Z,14.29
2023-04-18T16:59:57.555Z,14.16
2023-04-18T17:02:26.609Z,14.01
2023-04-18T17:04:53.701Z,13.87
2023-04-18T17:08:10.880Z,13.83
2023-04-18T17:11:16.438Z,13.78
2023-04-18T17:13:43.656Z,13.69
2023-04-18T17:16:41.543Z,13.67
2023-04-18T17:19:10.425Z,13.65
2023-04-18T17:21:38.284Z,13.66
2023-04-18T17:24:06.168Z,13.58
2023-04-18T17:26:35.426Z,13.56
2023-04-18T17:29:02.841Z,13.53
2023-04-18T17:31:30.427Z,13.43
2023-04-18T17:33:57.575Z,13.39
2023-04-18T17:36:27.518Z,13.46
2023-04-18T17:38:54.606Z,13.34
2023-04-18T17:41:22.296Z,13.31
2023-04-18T17:43:50.706Z,13.25
2023-04-18T17:46:17.698Z,13.21
2023-04-18T17:48:44.921Z,13.12
2023-04-18T17:51:11.897Z,13.10
2023-04-18T17:54:03.505Z,13.04
2023-04-18T17:56:50.796Z,13.15
2023-04-18T17:59:18.272Z,13.04
2023-04-18T18:01:45.333Z,12.97
2023-04-18T18:04:12.654Z,12.91
2023-04-18T18:06:56.920Z,12.87
2023-04-18T18:09:25.377Z,12.82
2023-04-18T18:11:54.652Z,12.75
2023-04-18T18:14:23.009Z,12.71
2023-04-18T18:16:50.242Z,12.69
2023-04-18T18:19:17.106Z,12.65
2023-04-18T18:21:44.643Z,12.62
2023-04-18T18:24:11.779Z,12.59
2023-04-18T18:26:40.445Z,12.59
2023-04-18T18:29:10.496Z,12.65
2023-04-18T18:31:39.114Z,12.57
2023-04-18T18:34:06.329Z,12.53
2023-04-18T18:36:33.519Z,12.50
2023-04-18T18:39:00.511Z,12.51
2023-04-18T18:41:27.703Z,12.44
2023-04-18T18:43:56.243Z,12.41
2023-04-18T18:46:23.192Z,12.42
2023-04-18T18:48:50.198Z,12.38
2023-04-18T18:51:18.952Z,12.35
2023-04-18T18:53:48.359Z,12.30
2023-04-18T18:56:15.252Z,12.26
2023-04-18T18:58:42.559Z,12.30
2023-04-18T19:01:11.157Z,12.27
2023-04-18T19:03:44.453Z,12.22
2023-04-18T19:06:20.308Z,12.15
2023-04-18T19:09:06.153Z,12.17
2023-04-18T19:11:35.409Z,12.15
2023-04-18T19:14:05.206Z,12.10
2023-04-18T19:16:33.705Z,12.15
2023-04-18T19:19:00.753Z,12.05
2023-04-18T19:21:28.362Z,11.99
2023-04-18T19:23:55.643Z,11.97
2023-04-18T19:26:22.840Z,11.90
2023-04-18T19:28:50.852Z,11.89
2023-04-18T19:31:17.727Z,11.95
2023-04-18T19:33:46.608Z,11.89
2023-04-18T19:36:14.188Z,11.87
2023-04-18T19:38:41.718Z,11.81
2023-04-18T19:41:08.546Z,11.80
2023-04-18T19:43:52.520Z,11.82
2023-04-18T19:46:19.576Z,11.85
2023-04-18T19:48:47.739Z,11.81
2023-04-18T19:51:14.624Z,11.74
2023-04-18T19:53:41.742Z,11.69
2023-04-18T19:56:08.647Z,11.71
2023-04-18T19:58:37.288Z,11.70
2023-04-18T20:01:04.258Z,11.67
2023-04-18T20:03:31.681Z,11.59
2023-04-18T20:06:00.441Z,11.83
2023-04-18T20:08:27.469Z,11.75
2023-04-18T20:10:54.292Z,12.00
2023-04-18T20:13:21.131Z,11.61
2023-04-18T20:15:48.110Z,11.66
2023-04-18T20:18:15.123Z,12.14
2023-04-18T20:20:42.049Z,11.65
2023-04-18T20:23:10.623Z,11.76
2023-04-18T20:25:37.515Z,11.77
2023-04-18T20:28:05.191Z,11.94
2023-04-18T20:30:32.080Z,11.47
2023-04-18T20:32:59.294Z,11.41
2023-04-18T20:35:27.374Z,11.39
2023-04-18T20:37:54.293Z,11.35
2023-04-18T20:40:23.501Z,11.35
2023-04-18T20:42:50.560Z,11.30
2023-04-18T20:45:17.463Z,11.33
2023-04-18T20:47:44.393Z,11.34
2023-04-18T20:50:11.426Z,11.34
2023-04-18T20:52:38.326Z,11.31
2023-04-18T20:55:06.219Z,11.34
2023-04-18T20:57:35.671Z,11.26
2023-04-18T21:00:55.093Z,11.31
2023-04-18T21:03:23.313Z,11.20
2023-04-18T21:05:51.293Z,11.22
2023-04-18T21:08:18.252Z,11.27
2023-04-18T21:10:45.345Z,11.21
2023-04-18T21:13:13.693Z,11.19
2023-04-18T21:15:41.256Z,11.21
2023-04-18T21:18:08.258Z,11.15
2023-04-18T21:20:35.122Z,11.17
2023-04-18T21:23:02.304Z,11.20
2023-04-18T21:25:29.203Z,11.09
2023-04-18T21:27:56.029Z,11.10
2023-04-18T21:30:24.268Z,11.15
2023-04-18T21:32:51.271Z,11.11
2023-04-18T21:35:20.127Z,11.03
2023-04-18T21:37:48.330Z,11.02
2023-04-18T21:40:15.469Z,11.03
2023-04-18T21:42:42.541Z,11.04
2023-04-18T21:45:11.079Z,10.98
2023-04-18T21:47:39.351Z,10.98
2023-04-18T21:50:08.941Z,10.96
2023-04-18T21:52:36.344Z,10.92
2023-04-18T21:55:04.038Z,10.89
2023-04-18T21:57:31.206Z,10.94
2023-04-18T21:59:58.156Z,10.88
2023-04-18T22:02:25.696Z,10.80
2023-04-18T22:04:54.483Z,10.81
2023-04-18T22:07:21.530Z,10.76
2023-04-18T22:09:48.655Z,10.77
2023-04-18T22:12:15.678Z,10.76
2023-04-18T22:14:43.120Z,10.72
2023-04-18T22:17:10.174Z,10.73
2023-04-18T22:19:37.185Z,10.71
2023-04-18T22:22:05.558Z,10.70
2023-04-18T22:24:32.464Z,10.65
2023-04-18T22:27:00.290Z,10.62
2023-04-18T22:29:27.620Z,10.63
2023-04-18T22:31:54.718Z,10.60
2023-04-18T22:34:21.621Z,10.58
2023-04-18T22:36:48.720Z,10.63
2023-04-18T22:39:17.069Z,10.61
2023-04-18T22:41:44.059Z,10.52
2023-04-18T22:44:11.280Z,10.56
2023-04-18T22:46:42.577Z,10.62
2023-04-18T22:49:57.110Z,10.48
2023-04-18T22:53:19.524Z,10.46
2023-04-18T22:55:51.374Z,10.46
2023-04-18T22:58:24.004Z,10.39
2023-04-18T23:00:50.959Z,10.31
2023-04-18T23:03:18.107Z,10.29
2023-04-18T23:05:46.259Z,10.35
2023-04-18T23:08:13.118Z,10.35
2023-04-18T23:10:40.029Z,10.33
2023-04-18T23:13:08.104Z,10.34
2023-04-18T23:15:35.410Z,10.30
2023-04-18T23:18:02.457Z,10.32
2023-04-18T23:20:29.400Z,10.33
2023-04-18T23:22:56.373Z,10.27
2023-04-18T23:25:23.315Z,10.19
2023-04-18T23:27:50.440Z,10.23
2023-04-18T23:30:27.792Z,10.23
2023-04-18T23:32:55.018Z,10.18
2023-04-18T23:35:22.035Z,10.26
2023-04-18T23:37:48.841Z,10.31
2023-04-18T23:40:16.255Z,10.38
2023-04-18T23:42:43.165Z,10.29
2023-04-18T23:45:11.913Z,10.34
2023-04-18T23:47:40.414Z,10.28
2023-04-18T23:50:08.889Z,10.18
2023-04-18T23:52:36.077Z,10.21
2023-04-18T23:55:03.243Z,10.20
2023-04-18T23:57:31.344Z,10.13
2023-04-18T23:59:58.243Z,10.23
